createdAt,value
2018-12-03T00:00:10.765Z,37.33
2018-12-03T00:02:38.537Z,37.33
2018-12-03T00:05:06.476Z,35.00
2018-12-03T00:07:34.190Z,35.07
2018-12-03T00:10:01.822Z,35.57
2018-12-03T00:12:29.856Z,35.47
2018-12-03T00:14:57.545Z,34.87
2018-12-03T00:17:25.588Z,35.23
2018-12-03T00:19:53.198Z,34.60
2018-12-03T00:22:20.806Z,35.77
2018-12-03T00:24:48.464Z,35.43
2018-12-03T00:27:16.285Z,33.93
2018-12-03T00:29:43.905Z,34.20
2018-12-03T00:32:11.709Z,33.57
2018-12-03T00:34:39.557Z,34.80
2018-12-03T00:37:07.293Z,35.50
2018-12-03T00:39:35.826Z,34.50
2018-12-03T00:42:03.601Z,33.63
2018-12-03T00:44:31.347Z,34.07
2018-12-03T00:46:58.961Z,33.63
2018-12-03T00:49:26.905Z,34.40
2018-12-03T00:51:54.566Z,35.83
2018-12-03T00:54:22.399Z,35.57
2018-12-03T00:56:50.211Z,36.67
2018-12-03T00:59:17.874Z,34.53
2018-12-03T01:01:45.584Z,36.10
2018-12-03T01:04:13.364Z,35.67
2018-12-03T01:06:41.080Z,35.57
2018-12-03T01:09:09.020Z,35.60
2018-12-03T01:11:37.094Z,34.07
2018-12-03T01:14:04.854Z,32.10
2018-12-03T01:16:32.561Z,31.93
2018-12-03T01:19:00.325Z,31.40
2018-12-03T01:21:28.035Z,29.37
2018-12-03T01:23:55.940Z,29.87
2018-12-03T01:26:23.816Z,28.93
2018-12-03T01:28:51.585Z,28.40
2018-12-03T01:31:19.481Z,28.17
2018-12-03T01:33:47.247Z,28.47
2018-12-03T01:36:15.052Z,27.63
2018-12-03T01:38:42.946Z,27.03
2018-12-03T01:41:10.823Z,26.30
2018-12-03T01:43:38.553Z,26.43
2018-12-03T01:46:06.305Z,24.73
2018-12-03T01:48:34.107Z,25.73
2018-12-03T01:51:01.956Z,26.17
2018-12-03T01:53:29.663Z,24.90
2018-12-03T01:55:57.362Z,26.07
2018-12-03T01:58:25.131Z,25.77
2018-12-03T02:00:53.857Z,24.47
2018-12-03T02:03:21.561Z,23.90
2018-12-03T02:05:49.243Z,25.07
2018-12-03T02:08:16.953Z,24.20
2018-12-03T02:10:44.961Z,24.70
2018-12-03T02:13:12.737Z,23.60
2018-12-03T02:15:40.469Z,23.73
2018-12-03T02:18:08.302Z,23.70
2018-12-03T02:20:36.252Z,24.57
2018-12-03T02:23:04.102Z,22.50
2018-12-03T02:25:31.901Z,24.43
2018-12-03T02:27:59.617Z,22.93
2018-12-03T02:30:27.353Z,23.33
2018-12-03T02:32:55.107Z,22.33
2018-12-03T02:35:22.843Z,23.23
2018-12-03T02:37:50.520Z,22.43
2018-12-03T02:40:18.487Z,22.33
2018-12-03T02:42:46.273Z,21.73
2018-12-03T02:45:14.460Z,21.07
2018-12-03T02:47:42.295Z,21.83
2018-12-03T02:50:11.989Z,21.07
2018-12-03T02:52:40.125Z,20.20
2018-12-03T02:55:09.110Z,20.20
2018-12-03T02:57:36.980Z,19.90
2018-12-03T03:00:08.411Z,19.93
2018-12-03T03:02:36.162Z,20.20
2018-12-03T03:05:04.886Z,19.47
2018-12-03T03:07:32.705Z,20.13
2018-12-03T03:10:00.491Z,19.83
2018-12-03T03:12:28.268Z,19.03
2018-12-03T03:14:56.121Z,19.00
2018-12-03T03:17:23.995Z,18.73
2018-12-03T03:19:51.787Z,19.53
2018-12-03T03:22:19.502Z,18.63
2018-12-03T03:24:47.148Z,18.33
2018-12-03T03:27:15.171Z,19.03
2018-12-03T03:29:43.124Z,17.60
2018-12-03T03:32:11.105Z,18.43
2018-12-03T03:34:39.009Z,17.77
2018-12-03T03:37:07.052Z,18.87
2018-12-03T03:39:35.168Z,17.93
2018-12-03T03:42:03.328Z,17.83
2018-12-03T03:44:31.078Z,17.80
2018-12-03T03:46:59.040Z,17.57
2018-12-03T03:49:27.075Z,18.07
2018-12-03T03:51:55.152Z,18.57
2018-12-03T03:54:25.512Z,18.37
2018-12-03T03:56:51.145Z,17.73
2018-12-03T03:59:19.152Z,17.77
2018-12-03T04:01:46.964Z,18.40
2018-12-03T04:04:14.989Z,17.20
2018-12-03T04:06:42.866Z,17.50
2018-12-03T04:09:10.699Z,17.90
2018-12-03T04:11:38.360Z,16.67
2018-12-03T04:14:06.426Z,18.67
2018-12-03T04:16:34.230Z,18.00
2018-12-03T04:19:02.134Z,18.37
2018-12-03T04:21:29.943Z,19.33
2018-12-03T04:23:57.791Z,18.77
2018-12-03T04:26:26.029Z,19.30
2018-12-03T04:28:53.855Z,18.73
2018-12-03T04:31:22.082Z,18.00
2018-12-03T04:33:50.075Z,18.93
2018-12-03T04:36:18.244Z,17.97
2018-12-03T04:38:46.292Z,17.87
2018-12-03T04:41:14.157Z,18.97
2018-12-03T04:43:42.701Z,18.37
2018-12-03T04:46:10.524Z,18.60
2018-12-03T04:48:38.327Z,18.80
2018-12-03T04:51:06.153Z,19.30
2018-12-03T04:53:33.998Z,18.20
2018-12-03T04:56:01.994Z,19.40
2018-12-03T04:58:29.857Z,19.20
2018-12-03T05:00:57.709Z,19.10
2018-12-03T05:03:25.808Z,18.57
2018-12-03T05:05:53.610Z,19.00
2018-12-03T05:08:21.507Z,18.63
2018-12-03T05:10:49.241Z,17.87
2018-12-03T05:13:17.091Z,17.97
2018-12-03T05:15:44.897Z,17.90
2018-12-03T05:18:12.922Z,18.00
2018-12-03T05:20:41.095Z,18.23
2018-12-03T05:23:08.930Z,18.10
2018-12-03T05:25:51.846Z,19.40
2018-12-03T05:28:20.187Z,17.47
2018-12-03T05:30:47.975Z,17.63
2018-12-03T05:33:15.836Z,18.03
2018-12-03T05:35:43.729Z,17.20
2018-12-03T05:38:11.583Z,17.43
2018-12-03T05:40:39.627Z,99.60
2018-12-03T05:43:07.583Z,85.37
2018-12-03T05:45:35.541Z,42.00
2018-12-03T05:48:03.224Z,22.13
2018-12-03T05:50:30.975Z,20.83
2018-12-03T05:52:58.933Z,19.60
2018-12-03T05:55:26.617Z,19.30
2018-12-03T05:57:54.411Z,19.57
2018-12-03T06:00:23.151Z,19.00
2018-12-03T06:02:51.122Z,18.37
2018-12-03T06:05:19.018Z,19.17
2018-12-03T06:07:46.868Z,19.30
2018-12-03T06:10:17.306Z,19.93
2018-12-03T06:12:45.387Z,19.50
2018-12-03T06:15:14.479Z,19.20
2018-12-03T06:17:42.383Z,19.00
2018-12-03T06:20:15.324Z,19.53
2018-12-03T06:22:43.223Z,19.70
2018-12-03T06:25:13.453Z,19.47
2018-12-03T06:27:41.509Z,20.30
2018-12-03T06:30:16.185Z,21.37
2018-12-03T06:32:44.035Z,21.57
2018-12-03T06:35:12.920Z,20.43
2018-12-03T06:37:40.989Z,20.40
2018-12-03T06:40:13.060Z,20.97
2018-12-03T06:42:41.124Z,20.40
2018-12-03T06:45:11.960Z,19.83
2018-12-03T06:47:43.087Z,20.23
2018-12-03T06:50:11.239Z,19.93
2018-12-03T06:52:39.293Z,20.10
2018-12-03T06:55:08.693Z,18.30
2018-12-03T06:57:36.883Z,19.00
2018-12-03T07:00:11.230Z,19.13
2018-12-03T07:02:39.237Z,17.87
2018-12-03T07:05:08.419Z,20.07
2018-12-03T07:07:36.864Z,18.10
2018-12-03T07:10:10.608Z,17.80
2018-12-03T07:12:38.544Z,19.10
2018-12-03T07:15:08.704Z,18.70
2018-12-03T07:17:36.521Z,19.03
2018-12-03T07:20:09.594Z,18.47
2018-12-03T07:22:37.706Z,19.10
2018-12-03T07:25:07.100Z,19.33
2018-12-03T07:27:35.316Z,19.43
2018-12-03T07:30:04.060Z,19.63
2018-12-03T07:32:32.092Z,20.43
2018-12-03T07:34:59.895Z,19.00
2018-12-03T07:37:27.878Z,19.13
2018-12-03T07:39:55.734Z,19.30
2018-12-03T07:42:23.741Z,19.23
2018-12-03T07:44:51.958Z,17.80
2018-12-03T07:47:19.974Z,19.03
2018-12-03T07:49:47.783Z,19.10
2018-12-03T07:52:15.568Z,18.40
2018-12-03T07:54:43.693Z,18.13
2018-12-03T07:57:11.459Z,17.67
2018-12-03T07:59:39.407Z,17.10
2018-12-03T08:02:07.631Z,17.20
2018-12-03T08:04:35.526Z,17.40
2018-12-03T08:07:03.406Z,16.60
2018-12-03T08:09:31.423Z,16.43
2018-12-03T08:11:59.217Z,16.90
2018-12-03T08:14:27.094Z,16.33
2018-12-03T08:16:54.905Z,13.97
2018-12-03T08:19:22.601Z,14.63
2018-12-03T08:21:50.237Z,14.90
2018-12-03T08:24:18.054Z,14.10
2018-12-03T08:26:45.782Z,14.60
2018-12-03T08:29:13.551Z,14.13
2018-12-03T08:31:41.374Z,14.30
2018-12-03T08:34:09.191Z,13.33
2018-12-03T08:36:36.885Z,13.40
2018-12-03T08:39:07.956Z,14.40
2018-12-03T08:41:35.689Z,14.40
2018-12-03T08:44:03.513Z,14.13
2018-12-03T08:46:31.293Z,16.00
2018-12-03T08:48:59.222Z,15.03
2018-12-03T08:51:26.851Z,13.80
2018-12-03T08:53:54.589Z,15.20
2018-12-03T08:56:22.322Z,15.03
2018-12-03T08:58:50.000Z,15.53
2018-12-03T09:01:19.588Z,15.70
2018-12-03T09:03:53.410Z,15.73
2018-12-03T09:06:21.140Z,15.63
2018-12-03T09:08:49.974Z,14.03
2018-12-03T09:11:19.182Z,14.87
2018-12-03T09:13:47.080Z,16.03
2018-12-03T09:16:14.789Z,14.83
2018-12-03T09:18:42.419Z,15.60
2018-12-03T09:21:12.490Z,15.60
2018-12-03T09:23:41.421Z,15.50
2018-12-03T09:26:09.717Z,14.97
2018-12-03T09:28:37.509Z,15.90
2018-12-03T09:31:05.496Z,14.97
2018-12-03T09:33:33.336Z,14.67
2018-12-03T09:36:01.050Z,15.00
2018-12-03T09:38:28.969Z,15.37
2018-12-03T09:40:59.058Z,15.20
2018-12-03T09:43:27.457Z,15.87
2018-12-03T09:45:55.490Z,16.77
2018-12-03T09:48:23.273Z,15.90
2018-12-03T09:50:50.967Z,15.60
2018-12-03T09:53:18.834Z,16.80
2018-12-03T09:55:46.534Z,17.50
2018-12-03T09:58:16.697Z,17.83
2018-12-03T10:00:44.474Z,17.17
2018-12-03T10:03:29.520Z,16.90
2018-12-03T10:05:58.983Z,17.60
2018-12-03T10:08:29.015Z,21.40
2018-12-03T10:10:57.920Z,19.70
2018-12-03T10:13:26.745Z,20.97
2018-12-03T10:15:54.409Z,21.03
2018-12-03T10:18:22.218Z,20.77
2018-12-03T10:20:51.849Z,19.90
2018-12-03T10:23:19.765Z,21.50
2018-12-03T10:25:49.458Z,19.63
2018-12-03T10:28:17.164Z,19.77
2018-12-03T10:30:44.946Z,20.53
2018-12-03T10:33:17.976Z,21.47
2018-12-03T10:35:45.960Z,19.83
2018-12-03T10:38:24.495Z,19.53
2018-12-03T10:40:57.294Z,19.97
2018-12-03T10:43:25.004Z,19.50
2018-12-03T10:45:52.834Z,20.90
2018-12-03T10:48:20.722Z,22.67
2018-12-03T10:50:48.529Z,22.63
2018-12-03T10:53:18.453Z,21.30
2018-12-03T10:55:46.427Z,22.60
2018-12-03T10:58:14.707Z,22.27
2018-12-03T11:00:48.372Z,22.73
2018-12-03T11:03:22.004Z,22.43
2018-12-03T11:05:55.617Z,21.10
2018-12-03T11:08:23.806Z,21.17
2018-12-03T11:10:53.318Z,21.70
2018-12-03T11:13:21.292Z,20.97
2018-12-03T11:15:49.216Z,22.20
2018-12-03T11:18:17.211Z,20.80
2018-12-03T11:20:45.133Z,21.63
2018-12-03T11:23:18.278Z,20.73
2018-12-03T11:25:46.189Z,20.90
2018-12-03T11:28:15.187Z,22.60
2018-12-03T11:30:51.226Z,22.67
2018-12-03T11:33:24.493Z,20.93
2018-12-03T11:35:54.411Z,21.47
2018-12-03T11:38:28.390Z,21.10
2018-12-03T11:40:56.709Z,20.43
2018-12-03T11:43:26.203Z,21.37
2018-12-03T11:45:54.358Z,22.00
2018-12-03T11:48:22.337Z,20.83
2018-12-03T11:50:50.310Z,21.80
2018-12-03T11:53:18.468Z,22.60
2018-12-03T11:55:46.203Z,21.80
2018-12-03T11:58:13.879Z,21.10
2018-12-03T12:00:41.653Z,22.83
2018-12-03T12:03:09.603Z,21.80
2018-12-03T12:05:37.540Z,21.13
2018-12-03T12:08:05.585Z,23.57
2018-12-03T12:10:33.610Z,23.13
2018-12-03T12:13:01.686Z,21.77
2018-12-03T12:15:29.529Z,21.90
2018-12-03T12:17:57.570Z,22.77
2018-12-03T12:20:25.493Z,23.57
2018-12-03T12:22:53.315Z,22.60
2018-12-03T12:25:21.161Z,21.37
2018-12-03T12:27:52.027Z,21.47
2018-12-03T12:30:19.900Z,21.47
2018-12-03T12:32:47.553Z,20.90
2018-12-03T12:35:15.370Z,21.47
2018-12-03T12:37:43.155Z,22.30
2018-12-03T12:40:12.351Z,21.47
2018-12-03T12:42:40.919Z,21.67
2018-12-03T12:45:18.150Z,22.17
2018-12-03T12:47:46.017Z,23.63
2018-12-03T12:50:16.073Z,22.40
2018-12-03T12:52:43.921Z,23.50
2018-12-03T12:55:11.616Z,23.43
2018-12-03T12:57:39.397Z,22.30
2018-12-03T13:00:11.590Z,21.90
2018-12-03T13:02:39.333Z,22.33
2018-12-03T13:05:07.053Z,23.73
2018-12-03T13:07:34.811Z,22.37
2018-12-03T13:10:02.585Z,22.63
2018-12-03T13:12:30.389Z,21.30
2018-12-03T13:14:58.118Z,22.27
2018-12-03T13:17:25.901Z,22.93
2018-12-03T13:19:53.604Z,23.90
2018-12-03T13:22:33.529Z,23.47
2018-12-03T13:25:01.278Z,25.37
2018-12-03T13:27:29.182Z,25.07
2018-12-03T13:29:57.590Z,26.27
2018-12-03T13:32:25.315Z,24.53
2018-12-03T13:34:53.055Z,25.93
2018-12-03T13:37:20.777Z,25.83
2018-12-03T13:39:48.775Z,25.47
2018-12-03T13:42:16.675Z,24.93
2018-12-03T13:44:44.379Z,25.97
2018-12-03T13:47:12.265Z,25.23
2018-12-03T13:49:39.936Z,25.53
2018-12-03T13:52:07.741Z,24.87
2018-12-03T13:54:35.609Z,25.57
2018-12-03T13:57:03.465Z,23.53
2018-12-03T13:59:31.401Z,24.80
2018-12-03T14:01:59.173Z,23.73
2018-12-03T14:04:26.905Z,23.20
2018-12-03T14:07:14.154Z,22.90
2018-12-03T14:10:07.649Z,22.83
2018-12-03T14:12:42.120Z,23.30
2018-12-03T14:15:31.477Z,23.17
2018-12-03T14:18:16.663Z,24.50
2018-12-03T14:20:47.248Z,24.33
2018-12-03T14:23:17.864Z,24.90
2018-12-03T14:25:45.677Z,26.30
2018-12-03T14:28:13.589Z,25.87
2018-12-03T14:30:41.307Z,27.00
2018-12-03T14:33:09.075Z,26.90
2018-12-03T14:35:36.905Z,26.43
2018-12-03T14:38:19.456Z,27.13
2018-12-03T14:40:47.476Z,26.33
2018-12-03T14:43:15.175Z,26.17
2018-12-03T14:45:42.866Z,26.07
2018-12-03T14:48:10.586Z,26.23
2018-12-03T14:50:38.574Z,27.17
2018-12-03T14:53:07.861Z,27.87
2018-12-03T14:55:34.504Z,26.33
2018-12-03T14:58:02.453Z,26.67
2018-12-03T15:00:30.214Z,27.03
2018-12-03T15:02:58.053Z,26.90
2018-12-03T15:05:25.850Z,25.87
2018-12-03T15:07:53.686Z,27.13
2018-12-03T15:10:21.566Z,28.17
2018-12-03T15:12:49.230Z,27.00
2018-12-03T15:15:16.932Z,29.03
2018-12-03T15:17:45.018Z,27.80
2018-12-03T15:20:12.681Z,27.87
2018-12-03T15:22:40.521Z,26.80
2018-12-03T15:25:10.453Z,29.10
2018-12-03T15:27:38.204Z,29.13
2018-12-03T15:30:07.599Z,32.30
2018-12-03T15:32:35.498Z,34.20
2018-12-03T15:35:03.717Z,32.67
2018-12-03T15:37:31.413Z,32.93
2018-12-03T15:39:59.125Z,28.97
2018-12-03T15:42:26.817Z,30.03
2018-12-03T15:44:54.814Z,29.37
2018-12-03T15:47:22.798Z,30.17
2018-12-03T15:49:50.755Z,28.77
2018-12-03T15:52:18.745Z,28.53
2018-12-03T15:54:46.931Z,28.67
2018-12-03T15:57:14.860Z,30.10
2018-12-03T15:59:43.307Z,28.80
2018-12-03T16:02:11.912Z,27.57
2018-12-03T16:04:39.883Z,26.93
2018-12-03T16:07:08.193Z,27.70
2018-12-03T16:09:36.582Z,28.30
2018-12-03T16:12:04.849Z,32.30
2018-12-03T16:14:33.241Z,30.07
2018-12-03T16:17:01.632Z,28.70
2018-12-03T16:19:29.784Z,26.83
2018-12-03T16:21:58.031Z,30.70
2018-12-03T16:24:26.421Z,31.93
2018-12-03T16:26:54.908Z,30.67
2018-12-03T16:29:23.025Z,32.77
2018-12-03T16:31:51.457Z,38.57
2018-12-03T16:34:19.907Z,32.03
2018-12-03T16:36:49.051Z,34.87
2018-12-03T16:39:17.401Z,34.67
2018-12-03T16:41:46.185Z,32.47
2018-12-03T16:44:14.943Z,33.60
2018-12-03T16:46:43.699Z,32.87
2018-12-03T16:49:12.382Z,33.90
2018-12-03T16:51:40.959Z,34.17
2018-12-03T16:54:09.569Z,32.17
2018-12-03T16:56:38.031Z,31.23
2018-12-03T16:59:07.298Z,31.17
2018-12-03T17:01:35.891Z,29.97
2018-12-03T17:04:04.874Z,30.17
2018-12-03T17:06:33.642Z,33.70
2018-12-03T17:09:02.450Z,30.53
2018-12-03T17:11:31.097Z,32.53
2018-12-03T17:13:59.750Z,31.10
2018-12-03T17:16:28.499Z,32.13
2018-12-03T17:18:57.127Z,30.60
2018-12-03T17:22:36.367Z,32.73
2018-12-03T17:25:09.867Z,29.73
2018-12-03T17:27:38.806Z,31.13
2018-12-03T17:30:08.484Z,30.70
2018-12-03T17:32:37.268Z,32.43
2018-12-03T17:35:06.791Z,29.23
2018-12-03T17:37:36.580Z,31.50
2018-12-03T17:40:08.590Z,32.30
2018-12-03T17:43:10.412Z,32.23
2018-12-03T17:45:40.343Z,32.67
2018-12-03T17:48:10.068Z,35.73
2018-12-03T17:50:39.826Z,31.70
2018-12-03T17:53:09.250Z,29.73
2018-12-03T17:55:39.010Z,31.67
2018-12-03T17:58:08.879Z,31.57
2018-12-03T18:00:38.242Z,30.03
2018-12-03T18:03:08.020Z,31.20
2018-12-03T18:05:38.334Z,30.50
2018-12-03T18:08:08.503Z,30.23
2018-12-03T18:10:37.901Z,31.23
2018-12-03T18:13:07.607Z,32.63
2018-12-03T18:15:37.456Z,36.60
2018-12-03T18:18:06.960Z,34.30
2018-12-03T18:20:38.289Z,33.13
2018-12-03T18:23:07.586Z,33.07
2018-12-03T18:25:37.074Z,32.50
2018-12-03T18:28:07.557Z,32.70
2018-12-03T18:30:37.055Z,31.10
2018-12-03T18:33:06.562Z,30.70
2018-12-03T18:35:36.424Z,30.30
2018-12-03T18:38:05.990Z,30.27
2018-12-03T18:40:35.710Z,31.97
2018-12-03T18:43:05.076Z,30.80
2018-12-03T18:45:35.032Z,31.20
2018-12-03T18:48:04.976Z,30.83
2018-12-03T18:50:36.733Z,29.70
2018-12-03T18:53:16.891Z,30.63
2018-12-03T18:55:46.381Z,30.33
2018-12-03T18:58:19.419Z,29.60
2018-12-03T19:00:48.993Z,30.60
2018-12-03T19:03:20.407Z,33.23
2018-12-03T19:05:50.942Z,31.50
2018-12-03T19:08:20.650Z,30.60
2018-12-03T19:10:50.230Z,33.53
2018-12-03T19:13:20.517Z,32.57
2018-12-03T19:15:50.005Z,32.70
2018-12-03T19:18:19.905Z,33.47
2018-12-03T19:20:49.556Z,32.30
2018-12-03T19:23:18.897Z,33.80
2018-12-03T19:25:48.304Z,33.80
2018-12-03T19:28:17.663Z,33.63
2018-12-03T19:30:47.125Z,33.63
2018-12-03T19:33:16.783Z,33.97
2018-12-03T19:35:46.606Z,34.40
2018-12-03T19:38:16.038Z,35.70
2018-12-03T19:40:45.354Z,41.33
2018-12-03T19:43:15.001Z,36.73
2018-12-03T19:45:44.488Z,34.00
2018-12-03T19:48:13.933Z,35.30
2018-12-03T19:50:44.063Z,34.73
2018-12-03T19:53:16.080Z,34.53
2018-12-03T19:55:47.385Z,33.47
2018-12-03T19:58:23.239Z,34.30
2018-12-03T20:00:52.776Z,34.83
2018-12-03T20:03:23.254Z,33.87
2018-12-03T20:05:54.768Z,37.03
2018-12-03T20:08:25.495Z,37.53
2018-12-03T20:10:55.487Z,36.47
2018-12-03T20:13:25.265Z,37.03
2018-12-03T20:15:56.045Z,35.50
2018-12-03T20:18:26.699Z,36.10
2018-12-03T20:21:00.198Z,34.03
2018-12-03T20:23:34.949Z,34.23
2018-12-03T20:26:14.571Z,32.97
2018-12-03T20:28:53.021Z,36.63
2018-12-03T20:32:32.540Z,34.13
2018-12-03T20:35:24.252Z,33.27
2018-12-03T20:38:01.430Z,33.70
2018-12-03T20:40:40.360Z,35.03
2018-12-03T20:43:15.000Z,34.83
2018-12-03T20:46:09.347Z,35.57
2018-12-03T20:49:48.984Z,34.53
2018-12-03T20:52:22.805Z,35.13
2018-12-03T20:54:55.258Z,34.43
2018-12-03T20:57:25.536Z,32.60
2018-12-03T20:59:55.303Z,34.07
2018-12-03T21:02:25.686Z,35.30
2018-12-03T21:04:55.780Z,34.93
2018-12-03T21:07:25.432Z,34.97
2018-12-03T21:09:55.313Z,34.57
2018-12-03T21:12:25.015Z,35.83
2018-12-03T21:14:54.669Z,33.67
2018-12-03T21:17:24.415Z,33.17
2018-12-03T21:19:58.183Z,35.70
2018-12-03T21:22:27.943Z,34.23
2018-12-03T21:24:57.546Z,37.83
2018-12-03T21:27:27.505Z,35.73
2018-12-03T21:29:57.242Z,35.13
2018-12-03T21:32:27.216Z,34.90
2018-12-03T21:34:57.201Z,35.90
2018-12-03T21:37:27.090Z,33.90
2018-12-03T21:39:56.527Z,35.57
2018-12-03T21:42:27.011Z,36.30
2018-12-03T21:44:56.938Z,37.23
2018-12-03T21:47:26.353Z,34.90
2018-12-03T21:49:55.877Z,35.40
2018-12-03T21:52:25.339Z,35.27
2018-12-03T21:54:54.791Z,36.87
2018-12-03T21:57:24.278Z,35.83
2018-12-03T21:59:56.884Z,36.27
2018-12-03T22:02:25.417Z,35.27
2018-12-03T22:04:54.947Z,36.40
2018-12-03T22:07:24.251Z,34.37
2018-12-03T22:09:53.927Z,35.80
2018-12-03T22:12:23.223Z,36.63
2018-12-03T22:14:52.428Z,35.30
2018-12-03T22:17:21.708Z,36.40
2018-12-03T22:19:50.984Z,34.73
2018-12-03T22:22:20.084Z,35.07
2018-12-03T22:24:49.454Z,34.87
2018-12-03T22:27:18.261Z,35.27
2018-12-03T22:29:46.925Z,35.17
2018-12-03T22:32:15.701Z,33.00
2018-12-03T22:34:44.665Z,35.23
2018-12-03T22:37:13.504Z,34.20
2018-12-03T22:39:46.369Z,33.63
2018-12-03T22:42:12.919Z,34.33
2018-12-03T22:44:41.656Z,33.67
2018-12-03T22:47:10.150Z,33.33
2018-12-03T22:49:38.739Z,32.60
2018-12-03T22:52:07.495Z,33.93
2018-12-03T22:54:36.253Z,32.13
2018-12-03T22:57:04.873Z,32.87
2018-12-03T22:59:33.481Z,33.30
2018-12-03T23:02:02.302Z,33.80
2018-12-03T23:04:33.130Z,33.50
2018-12-03T23:07:01.721Z,32.47
2018-12-03T23:09:30.200Z,32.50
2018-12-03T23:11:58.832Z,32.77
2018-12-03T23:14:27.570Z,31.43
2018-12-03T23:16:56.102Z,32.30
2018-12-03T23:19:24.842Z,31.97
2018-12-03T23:21:53.454Z,32.77
2018-12-03T23:24:22.011Z,32.87
2018-12-03T23:26:50.845Z,32.10
2018-12-03T23:29:19.350Z,32.77
2018-12-03T23:31:47.997Z,32.30
2018-12-03T23:34:16.555Z,32.40
2018-12-03T23:36:45.264Z,33.40
2018-12-03T23:39:13.899Z,32.37
2018-12-03T23:41:42.583Z,31.57
2018-12-03T23:44:11.265Z,32.97
2018-12-03T23:46:39.938Z,33.07
2018-12-03T23:49:08.519Z,33.47
2018-12-03T23:51:37.102Z,33.40
2018-12-03T23:54:05.897Z,34.53
2018-12-03T23:56:34.703Z,34.70
2018-12-03T23:59:03.570Z,34.00
